SPKNA EPGL-EPWR
Flight info
| Callsign | SPKNA |
|---|---|
| Flight time | N/A |
| Altitude | 4500 |
| Route | EPWRG DCT EPWRS |
| Aircraft | DA42/L-S/C |
Departure
| Time | N/A |
|---|---|
| Airport | Gliwice-Trynek Airfield (EPGL) |
Arrival
| Time | 2026-05-03 20:52 |
|---|---|
| Airport | Copernicus Wrocław Airport (EPWR) |
| Time | Latitude | Longitude | Altitude | Speed | Heading |
|---|---|---|---|---|---|
| 2026-05-03 20:15 | 50.49909 | 17.95270 | 2469 ft | 105 kts | 305° |
| 2026-05-03 20:15 | 50.50344 | 17.94438 | 2467 ft | 96 kts | 282° |
| 2026-05-03 20:15 | 50.50697 | 17.93526 | 2458 ft | 102 kts | 284° |
| 2026-05-03 20:15 | 50.51039 | 17.92466 | 2471 ft | 119 kts | 279° |
| 2026-05-03 20:16 | 50.51380 | 17.91205 | 2471 ft | 131 kts | 279° |
| 2026-05-03 20:16 | 50.51701 | 17.89861 | 2465 ft | 126 kts | 271° |
| 2026-05-03 20:16 | 50.51850 | 17.88548 | 2457 ft | 121 kts | 266° |
| 2026-05-03 20:16 | 50.52009 | 17.87238 | 2459 ft | 122 kts | 267° |
| 2026-05-03 20:17 | 50.52149 | 17.85937 | 2457 ft | 123 kts | 267° |
| 2026-05-03 20:17 | 50.52311 | 17.84601 | 2459 ft | 130 kts | 274° |
| 2026-05-03 20:17 | 50.52714 | 17.83251 | 2455 ft | 142 kts | 290° |
| 2026-05-03 20:17 | 50.53363 | 17.82017 | 2462 ft | 154 kts | 311° |
| 2026-05-03 20:18 | 50.54259 | 17.81050 | 2457 ft | 157 kts | 318° |
| 2026-05-03 20:18 | 50.55198 | 17.80153 | 2464 ft | 159 kts | 324° |
| 2026-05-03 20:18 | 50.56191 | 17.79379 | 2463 ft | 161 kts | 328° |
| 2026-05-03 20:18 | 50.57200 | 17.78688 | 2565 ft | 156 kts | 329° |
| 2026-05-03 20:19 | 50.58123 | 17.77868 | 2499 ft | 150 kts | 322° |
| 2026-05-03 20:19 | 50.58971 | 17.77018 | 2503 ft | 139 kts | 312° |
| 2026-05-03 20:19 | 50.59816 | 17.76279 | 2542 ft | 136 kts | 325° |
| 2026-05-03 20:19 | 50.60632 | 17.75595 | 2567 ft | 135 kts | 324° |
| 2026-05-03 20:20 | 50.61430 | 17.74782 | 2533 ft | 134 kts | 314° |
| 2026-05-03 20:20 | 50.62185 | 17.73945 | 2544 ft | 133 kts | 311° |
| 2026-05-03 20:20 | 50.62897 | 17.73007 | 2543 ft | 129 kts | 306° |
| 2026-05-03 20:20 | 50.63567 | 17.72039 | 2451 ft | 137 kts | 308° |
| 2026-05-03 20:21 | 50.64204 | 17.71031 | 2509 ft | 129 kts | 303° |
| 2026-05-03 20:21 | 50.64789 | 17.69974 | 2498 ft | 129 kts | 300° |
| 2026-05-03 20:21 | 50.65382 | 17.68896 | 2483 ft | 130 kts | 302° |
| 2026-05-03 20:21 | 50.65941 | 17.67778 | 2418 ft | 131 kts | 296° |
| 2026-05-03 20:22 | 50.66493 | 17.66688 | 2459 ft | 123 kts | 298° |
| 2026-05-03 20:22 | 50.66923 | 17.65589 | 2492 ft | 115 kts | 283° |
| 2026-05-03 20:22 | 50.67300 | 17.64443 | 2506 ft | 121 kts | 288° |
| 2026-05-03 20:22 | 50.67690 | 17.63260 | 2534 ft | 123 kts | 283° |
| 2026-05-03 20:23 | 50.67977 | 17.61974 | 2576 ft | 124 kts | 273° |
| 2026-05-03 20:23 | 50.68125 | 17.60614 | 2521 ft | 126 kts | 266° |
| 2026-05-03 20:23 | 50.68223 | 17.59303 | 2722 ft | 122 kts | 275° |
| 2026-05-03 20:23 | 50.68270 | 17.57930 | 2649 ft | 118 kts | 261° |
| 2026-05-03 20:24 | 50.68312 | 17.56684 | 2468 ft | 113 kts | 262° |
| 2026-05-03 20:24 | 50.68442 | 17.55527 | 2329 ft | 108 kts | 270° |
| 2026-05-03 20:24 | 50.68610 | 17.54381 | 2314 ft | 110 kts | 279° |
| 2026-05-03 20:24 | 50.69062 | 17.53366 | 2479 ft | 118 kts | 294° |
| 2026-05-03 20:25 | 50.69396 | 17.52214 | 2567 ft | 120 kts | 279° |
| 2026-05-03 20:25 | 50.69711 | 17.50901 | 2567 ft | 128 kts | 279° |
| 2026-05-03 20:25 | 50.69983 | 17.49586 | 2502 ft | 121 kts | 279° |
| 2026-05-03 20:25 | 50.70228 | 17.48360 | 2502 ft | 111 kts | 278° |
| 2026-05-03 20:26 | 50.70503 | 17.47192 | 2445 ft | 117 kts | 285° |
| 2026-05-03 20:26 | 50.70899 | 17.46059 | 2496 ft | 122 kts | 293° |
| 2026-05-03 20:26 | 50.71417 | 17.44926 | 2515 ft | 131 kts | 300° |
| 2026-05-03 20:26 | 50.72039 | 17.43851 | 2507 ft | 136 kts | 304° |
| 2026-05-03 20:27 | 50.72689 | 17.42820 | 2496 ft | 128 kts | 307° |
| 2026-05-03 20:27 | 50.73336 | 17.41895 | 2443 ft | 120 kts | 307° |
| 2026-05-03 20:27 | 50.73938 | 17.41023 | 2387 ft | 120 kts | 308° |
| 2026-05-03 20:27 | 50.74546 | 17.40187 | 2468 ft | 113 kts | 308° |
| 2026-05-03 20:28 | 50.75174 | 17.39372 | 2527 ft | 119 kts | 312° |
| 2026-05-03 20:28 | 50.75634 | 17.38838 | 2496 ft | 128 kts | 314° |
| 2026-05-03 20:28 | 50.76386 | 17.37965 | 2421 ft | 136 kts | 315° |
| 2026-05-03 20:28 | 50.77325 | 17.37023 | 2424 ft | 114 kts | 318° |
| 2026-05-03 20:29 | 50.77982 | 17.36394 | 2425 ft | 110 kts | 316° |
| 2026-05-03 20:29 | 50.78630 | 17.35706 | 2395 ft | 115 kts | 315° |
| 2026-05-03 20:29 | 50.79300 | 17.34967 | 2385 ft | 117 kts | 315° |
| 2026-05-03 20:29 | 50.79700 | 17.34445 | 2496 ft | 105 kts | 300° |
| 2026-05-03 20:30 | 50.80161 | 17.33583 | 2653 ft | 102 kts | 292° |
| 2026-05-03 20:30 | 50.80552 | 17.32657 | 2829 ft | 97 kts | 286° |
| 2026-05-03 20:30 | 50.80887 | 17.31726 | 2988 ft | 99 kts | 288° |
| 2026-05-03 20:30 | 50.81275 | 17.30731 | 2878 ft | 124 kts | 290° |
| 2026-05-03 20:31 | 50.81741 | 17.29532 | 2821 ft | 121 kts | 287° |
| 2026-05-03 20:31 | 50.81984 | 17.28290 | 2621 ft | 119 kts | 276° |
| 2026-05-03 20:31 | 50.82302 | 17.27057 | 2473 ft | 125 kts | 289° |
| 2026-05-03 20:31 | 50.82741 | 17.25882 | 2379 ft | 121 kts | 286° |
| 2026-05-03 20:32 | 50.83115 | 17.24693 | 2268 ft | 121 kts | 287° |
| 2026-05-03 20:32 | 50.83584 | 17.23613 | 2382 ft | 117 kts | 299° |
| 2026-05-03 20:32 | 50.84173 | 17.22705 | 2470 ft | 123 kts | 307° |
| 2026-05-03 20:32 | 50.84885 | 17.21893 | 2497 ft | 123 kts | 311° |
| 2026-05-03 20:33 | 50.85567 | 17.21073 | 2488 ft | 129 kts | 312° |
| 2026-05-03 20:33 | 50.86313 | 17.20278 | 2524 ft | 130 kts | 318° |
| 2026-05-03 20:33 | 50.87094 | 17.19538 | 2527 ft | 128 kts | 312° |
| 2026-05-03 20:33 | 50.87719 | 17.18592 | 2296 ft | 130 kts | 300° |
| 2026-05-03 20:34 | 50.88284 | 17.17477 | 1987 ft | 123 kts | 293° |
| 2026-05-03 20:34 | 50.88695 | 17.16376 | 1874 ft | 110 kts | 284° |
| 2026-05-03 20:34 | 50.88932 | 17.15195 | 1584 ft | 112 kts | 275° |
| 2026-05-03 20:34 | 50.89120 | 17.13993 | 1312 ft | 107 kts | 278° |
| 2026-05-03 20:35 | 50.89407 | 17.12980 | 1292 ft | 101 kts | 300° |
| 2026-05-03 20:35 | 50.89857 | 17.12152 | 1298 ft | 101 kts | 303° |
| 2026-05-03 20:35 | 50.90191 | 17.11256 | 1387 ft | 90 kts | 289° |
| 2026-05-03 20:35 | 50.90506 | 17.10375 | 1423 ft | 92 kts | 290° |
| 2026-05-03 20:36 | 50.90841 | 17.09484 | 1453 ft | 95 kts | 291° |
| 2026-05-03 20:36 | 50.91217 | 17.08600 | 1481 ft | 97 kts | 291° |
| 2026-05-03 20:36 | 50.91646 | 17.07716 | 1426 ft | 110 kts | 308° |
| 2026-05-03 20:36 | 50.92225 | 17.06936 | 1468 ft | 112 kts | 311° |
| 2026-05-03 20:37 | 50.92783 | 17.06053 | 1479 ft | 112 kts | 301° |
| 2026-05-03 20:37 | 50.93256 | 17.05101 | 1461 ft | 111 kts | 295° |
| 2026-05-03 20:37 | 50.93650 | 17.04041 | 1358 ft | 112 kts | 284° |
| 2026-05-03 20:37 | 50.93776 | 17.02870 | 1312 ft | 106 kts | 266° |
| 2026-05-03 20:38 | 50.93806 | 17.01715 | 1330 ft | 103 kts | 268° |
| 2026-05-03 20:38 | 50.93936 | 17.00557 | 1237 ft | 114 kts | 281° |
| 2026-05-03 20:38 | 50.94209 | 16.99364 | 1202 ft | 112 kts | 289° |
| 2026-05-03 20:38 | 50.94597 | 16.98310 | 1209 ft | 110 kts | 297° |
| 2026-05-03 20:39 | 50.95001 | 16.97279 | 1211 ft | 110 kts | 296° |
| 2026-05-03 20:39 | 50.95371 | 16.96221 | 1206 ft | 110 kts | 289° |
| 2026-05-03 20:39 | 50.95669 | 16.95079 | 1170 ft | 113 kts | 287° |
| 2026-05-03 20:39 | 50.95964 | 16.93946 | 1182 ft | 108 kts | 288° |
| 2026-05-03 20:40 | 50.96250 | 16.92871 | 1262 ft | 111 kts | 287° |
| 2026-05-03 20:40 | 50.96591 | 16.91733 | 1443 ft | 115 kts | 289° |
| 2026-05-03 20:40 | 50.97012 | 16.90531 | 1387 ft | 128 kts | 292° |
| 2026-05-03 20:40 | 50.97443 | 16.89342 | 1324 ft | 121 kts | 294° |
| 2026-05-03 20:41 | 50.97896 | 16.88174 | 1387 ft | 126 kts | 294° |
| 2026-05-03 20:41 | 50.98336 | 16.86930 | 1439 ft | 132 kts | 290° |
| 2026-05-03 20:41 | 50.98736 | 16.85620 | 1493 ft | 135 kts | 287° |
| 2026-05-03 20:41 | 50.99145 | 16.84261 | 1501 ft | 132 kts | 290° |
| 2026-05-03 20:42 | 50.99798 | 16.83353 | 1565 ft | 134 kts | 333° |
| 2026-05-03 20:42 | 51.00708 | 16.83475 | 1420 ft | 132 kts | 31° |
| 2026-05-03 20:42 | 51.01426 | 16.84247 | 1265 ft | 119 kts | 19° |
| 2026-05-03 20:42 | 51.02183 | 16.84552 | 1237 ft | 108 kts | 15° |
| 2026-05-03 20:43 | 51.02887 | 16.84904 | 1212 ft | 102 kts | 21° |
| 2026-05-03 20:43 | 51.03518 | 16.85341 | 1161 ft | 101 kts | 28° |
| 2026-05-03 20:43 | 51.04149 | 16.85802 | 1144 ft | 99 kts | 30° |
| 2026-05-03 20:43 | 51.04763 | 16.86270 | 1114 ft | 97 kts | 22° |
| 2026-05-03 20:44 | 51.05371 | 16.86650 | 1138 ft | 92 kts | 22° |
| 2026-05-03 20:44 | 51.05947 | 16.87054 | 1228 ft | 91 kts | 30° |
| 2026-05-03 20:44 | 51.06524 | 16.87512 | 1249 ft | 94 kts | 24° |
| 2026-05-03 20:44 | 51.07163 | 16.87767 | 1289 ft | 95 kts | 347° |
| 2026-05-03 20:45 | 51.07759 | 16.87434 | 1397 ft | 90 kts | 321° |
| 2026-05-03 20:45 | 51.08324 | 16.86924 | 1550 ft | 94 kts | 311° |
| 2026-05-03 20:45 | 51.08755 | 16.86194 | 1660 ft | 98 kts | 293° |
| 2026-05-03 20:45 | 51.09127 | 16.85257 | 1533 ft | 96 kts | 294° |
| 2026-05-03 20:46 | 51.09500 | 16.84410 | 1378 ft | 88 kts | 290° |
| 2026-05-03 20:46 | 51.09804 | 16.83627 | 1270 ft | 83 kts | 292° |
| 2026-05-03 20:46 | 51.10109 | 16.82816 | 1248 ft | 86 kts | 294° |
| 2026-05-03 20:46 | 51.10304 | 16.82004 | 1332 ft | 69 kts | 256° |
| 2026-05-03 20:47 | 51.09984 | 16.81619 | 1332 ft | 69 kts | 172° |
| 2026-05-03 20:47 | 51.09602 | 16.82139 | 1384 ft | 75 kts | 133° |
| 2026-05-03 20:47 | 51.09565 | 16.82996 | 1412 ft | 93 kts | 68° |
| 2026-05-03 20:47 | 51.10099 | 16.83592 | 1467 ft | 98 kts | 7° |
| 2026-05-03 20:48 | 51.10710 | 16.83371 | 1516 ft | 85 kts | 303° |
| 2026-05-03 20:48 | 51.10971 | 16.82623 | 1601 ft | 78 kts | 281° |
| 2026-05-03 20:48 | 51.10794 | 16.81973 | 1480 ft | 80 kts | 195° |
| 2026-05-03 20:48 | 51.10299 | 16.82292 | 1558 ft | 86 kts | 139° |
| 2026-05-03 20:49 | 51.10256 | 16.83343 | 1531 ft | 112 kts | 68° |
| 2026-05-03 20:49 | 51.10932 | 16.83921 | 1418 ft | 117 kts | 339° |
| 2026-05-03 20:49 | 51.11393 | 16.83164 | 1314 ft | 86 kts | 283° |
| 2026-05-03 20:49 | 51.11847 | 16.82665 | 1245 ft | 92 kts | 3° |
| 2026-05-03 20:50 | 51.12261 | 16.83257 | 1178 ft | 78 kts | 100° |
| 2026-05-03 20:50 | 51.11952 | 16.83869 | 976 ft | 74 kts | 156° |
| 2026-05-03 20:50 | 51.11610 | 16.84412 | 774 ft | 71 kts | 125° |
| 2026-05-03 20:50 | 51.11367 | 16.85065 | 642 ft | 64 kts | 129° |
| 2026-05-03 20:51 | 51.11177 | 16.85675 | 520 ft | 62 kts | 120° |
| 2026-05-03 20:51 | 51.10979 | 16.86292 | 464 ft | 62 kts | 122° |
| 2026-05-03 20:51 | 51.10788 | 16.86924 | 459 ft | 66 kts | 121° |
| 2026-05-03 20:51 | 51.10575 | 16.87608 | 453 ft | 72 kts | 122° |
| 2026-05-03 20:52 | 51.10366 | 16.88285 | 405 ft | 59 kts | 123° |
| 2026-05-03 20:52 | 51.10207 | 16.88774 | 398 ft | 43 kts | 114° |
| 2026-05-03 20:52 | 51.10091 | 16.89156 | 399 ft | 37 kts | 117° |
| 2026-05-03 20:52 | 51.09983 | 16.89510 | 400 ft | 32 kts | 116° |
| 2026-05-03 20:53 | 51.09880 | 16.89761 | 398 ft | 21 kts | 169° |
| 2026-05-03 20:53 | 51.09744 | 16.89687 | 398 ft | 27 kts | 210° |
| 2026-05-03 20:53 | 51.09632 | 16.89575 | 398 ft | 14 kts | 242° |
| 2026-05-03 20:53 | 51.09646 | 16.89456 | 398 ft | 14 kts | 279° |
| 2026-05-03 20:54 | 51.09664 | 16.89295 | 398 ft | 16 kts | 276° |
| 2026-05-03 20:54 | 51.09707 | 16.88925 | 398 ft | 18 kts | 280° |
| 2026-05-03 20:54 | 51.09743 | 16.88755 | 398 ft | 14 kts | 312° |
| 2026-05-03 20:55 | 51.09809 | 16.88626 | 398 ft | 16 kts | 308° |
| 2026-05-03 20:55 | 51.09884 | 16.88481 | 398 ft | 18 kts | 310° |
| 2026-05-03 20:55 | 51.09960 | 16.88343 | 398 ft | 14 kts | 306° |
| 2026-05-03 20:55 | 51.09973 | 16.88256 | 398 ft | 10 kts | 205° |
| 2026-05-03 20:56 | 51.09944 | 16.88234 | 398 ft | 6 kts | 145° |
| 2026-05-03 20:56 | 51.09939 | 16.88258 | 398 ft | 2 kts | 65° |
| 2026-05-03 20:56 | 51.09961 | 16.88274 | 398 ft | 0 kts | 19° |
| 2026-05-03 20:57 | 51.09964 | 16.88275 | 398 ft | 2 kts | 356° |
| 2026-05-03 20:57 | 51.09950 | 16.88232 | 398 ft | 0 kts | 205° |
| 2026-05-03 20:57 | 51.09941 | 16.88239 | 398 ft | 2 kts | 128° |
| 2026-05-03 20:57 | 51.09942 | 16.88254 | 398 ft | 3 kts | 40° |
| 2026-05-03 20:58 | 51.09957 | 16.88271 | 398 ft | 0 kts | 43° |